createdAt,value
2017-01-15T00:00:18.493Z,721.42
2017-01-15T00:01:18.461Z,721.35
2017-01-15T00:02:18.434Z,721.44
2017-01-15T00:03:18.404Z,721.37
2017-01-15T00:04:18.374Z,721.43
2017-01-15T00:05:18.342Z,721.39
2017-01-15T00:06:18.316Z,721.48
2017-01-15T00:07:18.282Z,721.51
2017-01-15T00:08:18.252Z,721.53
2017-01-15T00:09:18.223Z,721.52
2017-01-15T00:10:18.197Z,721.55
2017-01-15T00:11:18.162Z,721.42
2017-01-15T00:12:18.136Z,721.46
2017-01-15T00:13:18.106Z,721.57
2017-01-15T00:14:18.077Z,721.19
2017-01-15T00:15:18.043Z,721.39
2017-01-15T00:16:18.013Z,721.34
2017-01-15T00:17:17.987Z,721.44
2017-01-15T00:18:17.955Z,721.48
2017-01-15T00:19:17.922Z,721.25
2017-01-15T00:20:17.895Z,721.3
2017-01-15T00:21:17.862Z,721.45
2017-01-15T00:22:17.834Z,721.28
2017-01-15T00:23:17.805Z,721.46
2017-01-15T00:24:17.771Z,721.41
2017-01-15T00:25:17.744Z,721.41
2017-01-15T00:26:17.710Z,721.43
2017-01-15T00:27:17.680Z,721.25
2017-01-15T00:28:17.650Z,721.24
2017-01-15T00:29:17.618Z,721.34
2017-01-15T00:30:17.588Z,721.34
2017-01-15T00:31:17.557Z,721.42
2017-01-15T00:32:17.531Z,721.37
2017-01-15T00:33:17.499Z,721.24
2017-01-15T00:34:17.469Z,721.26
2017-01-15T00:35:17.439Z,721.3
2017-01-15T00:36:17.408Z,721.34
2017-01-15T00:37:17.374Z,721.31
2017-01-15T00:38:17.347Z,721.4
2017-01-15T00:39:17.316Z,721.26
2017-01-15T00:40:17.282Z,721.12
2017-01-15T00:41:17.255Z,721.4
2017-01-15T00:42:17.220Z,721.31
2017-01-15T00:43:17.191Z,721.25
2017-01-15T00:44:17.163Z,721.22
2017-01-15T00:45:17.129Z,721.3
2017-01-15T00:46:17.101Z,721.3
2017-01-15T00:47:17.068Z,721.33
2017-01-15T00:48:17.041Z,721.37
2017-01-15T00:49:17.009Z,721.18
2017-01-15T00:50:16.979Z,721.44
2017-01-15T00:51:16.949Z,721.38
2017-01-15T00:52:16.917Z,721.41
2017-01-15T00:53:16.884Z,721.26
2017-01-15T00:54:16.856Z,721.36
2017-01-15T00:55:16.822Z,721.4
2017-01-15T00:56:16.791Z,721.31
2017-01-15T00:57:16.761Z,721.37
2017-01-15T00:58:16.729Z,721.38
2017-01-15T00:59:16.699Z,721.47
2017-01-15T01:00:16.669Z,721.33
2017-01-15T01:01:16.639Z,721.52
2017-01-15T01:02:16.607Z,721.46
2017-01-15T01:03:16.577Z,721.42
2017-01-15T01:04:16.547Z,721.43
2017-01-15T01:05:16.520Z,721.03
2017-01-15T01:06:16.490Z,721.3
2017-01-15T01:07:16.455Z,721.48
2017-01-15T01:08:16.426Z,721.34
2017-01-15T01:09:16.395Z,721.46
2017-01-15T01:10:16.363Z,721.55
2017-01-15T01:11:16.333Z,721.59
2017-01-15T01:12:16.303Z,721.42
2017-01-15T01:13:16.271Z,721.53
2017-01-15T01:14:16.241Z,721.49
2017-01-15T01:15:16.214Z,721.35
2017-01-15T01:16:16.180Z,721.65
2017-01-15T01:17:16.156Z,721.54
2017-01-15T01:18:16.119Z,721.55
2017-01-15T01:19:16.091Z,721.7
2017-01-15T01:20:16.061Z,721.64
2017-01-15T01:21:16.030Z,721.71
2017-01-15T01:22:15.998Z,721.68
2017-01-15T01:23:15.966Z,721.71
2017-01-15T01:24:15.935Z,721.65
2017-01-15T01:25:15.904Z,721.69
2017-01-15T01:26:15.874Z,721.63
2017-01-15T01:27:15.847Z,721.62
2017-01-15T01:28:15.816Z,721.63
2017-01-15T01:29:15.785Z,721.65
2017-01-15T01:30:15.756Z,721.68
2017-01-15T01:31:15.721Z,721.71
2017-01-15T01:32:15.690Z,721.72
2017-01-15T01:33:15.663Z,721.63
2017-01-15T01:34:15.633Z,721.59
2017-01-15T01:35:15.602Z,721.65
2017-01-15T01:36:15.568Z,721.56
2017-01-15T01:37:15.541Z,721.72
2017-01-15T01:38:15.511Z,721.66
2017-01-15T01:39:15.480Z,721.61
2017-01-15T01:40:15.446Z,721.71
2017-01-15T01:41:15.419Z,721.83
2017-01-15T01:42:15.386Z,721.69
2017-01-15T01:43:15.358Z,721.57
2017-01-15T01:44:15.328Z,721.61
2017-01-15T01:45:15.295Z,721.71
2017-01-15T01:46:15.266Z,721.59
2017-01-15T01:47:15.233Z,721.66
2017-01-15T01:48:15.206Z,721.69
2017-01-15T01:49:15.172Z,721.81
2017-01-15T01:50:15.144Z,721.59
2017-01-15T01:51:15.114Z,721.68
2017-01-15T01:52:15.080Z,721.71
2017-01-15T01:53:15.052Z,721.66
2017-01-15T01:54:15.022Z,721.8
2017-01-15T01:55:14.989Z,721.83
2017-01-15T01:56:14.961Z,721.76
2017-01-15T01:57:14.927Z,721.85
2017-01-15T01:58:14.900Z,721.7
2017-01-15T01:59:14.867Z,721.84
2017-01-15T02:00:14.839Z,721.74
2017-01-15T02:01:14.808Z,721.68
2017-01-15T02:02:14.775Z,721.82
2017-01-15T02:03:14.744Z,721.74
2017-01-15T02:04:14.715Z,721.67
2017-01-15T02:05:14.681Z,721.81
2017-01-15T02:06:14.654Z,721.76
2017-01-15T02:07:14.624Z,721.83
2017-01-15T02:08:14.590Z,721.81
2017-01-15T02:09:14.559Z,721.77
2017-01-15T02:10:14.533Z,721.81
2017-01-15T02:11:14.499Z,721.81
2017-01-15T02:12:14.468Z,721.62
2017-01-15T02:13:14.439Z,721.8
2017-01-15T02:14:14.411Z,721.79
2017-01-15T02:15:14.380Z,721.7
2017-01-15T02:16:14.347Z,721.75
2017-01-15T02:17:14.317Z,721.69
2017-01-15T02:18:14.286Z,721.7
2017-01-15T02:19:14.255Z,721.65
2017-01-15T02:20:14.225Z,721.79
2017-01-15T02:21:14.198Z,721.64
2017-01-15T02:22:14.164Z,721.58
2017-01-15T02:23:14.132Z,721.58
2017-01-15T02:24:14.102Z,721.84
2017-01-15T02:25:14.075Z,721.61
2017-01-15T02:26:14.040Z,721.66
2017-01-15T02:27:14.010Z,721.57
2017-01-15T02:28:13.983Z,721.5
2017-01-15T02:29:13.950Z,721.44
2017-01-15T02:30:13.918Z,721.42
2017-01-15T02:31:13.889Z,721.56
2017-01-15T02:32:13.862Z,721.61
2017-01-15T02:33:13.832Z,721.39
2017-01-15T02:34:13.798Z,721.51
2017-01-15T02:35:13.774Z,721.64
2017-01-15T02:36:13.741Z,721.56
2017-01-15T02:37:13.707Z,721.43
2017-01-15T02:38:13.678Z,721.49
2017-01-15T02:39:13.647Z,721.51
2017-01-15T02:40:13.618Z,721.59
2017-01-15T02:41:13.590Z,721.52
2017-01-15T02:42:13.560Z,721.48
2017-01-15T02:43:13.531Z,721.63
2017-01-15T02:44:13.501Z,721.66
2017-01-15T02:45:13.470Z,721.51
2017-01-15T02:46:13.438Z,721.48
2017-01-15T02:47:13.409Z,721.59
2017-01-15T02:48:13.378Z,721.6
2017-01-15T02:49:13.352Z,721.6
2017-01-15T02:50:13.331Z,721.68
2017-01-15T02:51:13.292Z,721.43
2017-01-15T02:52:13.328Z,721.62
2017-01-15T02:53:13.233Z,721.4
2017-01-15T02:54:13.199Z,721.59
2017-01-15T02:55:13.175Z,721.57
2017-01-15T02:56:13.142Z,721.67
2017-01-15T02:57:13.110Z,721.81
2017-01-15T02:58:13.084Z,721.75
2017-01-15T02:59:13.049Z,721.57
2017-01-15T03:00:13.019Z,721.65
2017-01-15T03:01:12.990Z,721.36
2017-01-15T03:02:12.963Z,721.5
2017-01-15T03:03:12.928Z,721.65
2017-01-15T03:04:12.897Z,721.53
2017-01-15T03:05:12.872Z,721.6
2017-01-15T03:06:12.839Z,721.65
2017-01-15T03:07:12.807Z,721.65
2017-01-15T03:08:12.777Z,721.72
2017-01-15T03:09:12.747Z,721.78
2017-01-15T03:10:12.716Z,721.53
2017-01-15T03:11:12.686Z,721.55
2017-01-15T03:12:12.659Z,721.5
2017-01-15T03:13:12.629Z,721.45
2017-01-15T03:14:12.598Z,721.48
2017-01-15T03:15:12.565Z,721.56
2017-01-15T03:16:12.538Z,721.55
2017-01-15T03:17:12.508Z,721.51
2017-01-15T03:18:12.475Z,721.54
2017-01-15T03:19:12.448Z,721.63
2017-01-15T03:20:12.414Z,721.66
2017-01-15T03:21:12.384Z,721.57
2017-01-15T03:22:12.358Z,721.49
2017-01-15T03:23:12.328Z,721.61
2017-01-15T03:24:12.295Z,721.53
2017-01-15T03:25:12.264Z,721.59
2017-01-15T03:26:12.237Z,721.77
2017-01-15T03:27:12.207Z,721.68
2017-01-15T03:28:12.173Z,721.71
2017-01-15T03:29:12.146Z,721.7
2017-01-15T03:30:12.116Z,721.58
2017-01-15T03:31:12.083Z,721.62
2017-01-15T03:32:12.055Z,721.67
2017-01-15T03:33:12.022Z,721.59
2017-01-15T03:34:11.992Z,721.61
2017-01-15T03:35:11.962Z,721.61
2017-01-15T03:36:11.934Z,721.52
2017-01-15T03:37:11.901Z,721.59
2017-01-15T03:38:11.870Z,721.71
2017-01-15T03:39:11.839Z,721.5
2017-01-15T03:40:11.812Z,721.52
2017-01-15T03:41:11.782Z,721.45
2017-01-15T03:42:11.753Z,721.49
2017-01-15T03:43:11.722Z,721.32
2017-01-15T03:44:11.687Z,721.45
2017-01-15T03:45:11.660Z,721.52
2017-01-15T03:46:11.627Z,721.53
2017-01-15T03:47:11.596Z,721.51
2017-01-15T03:48:11.566Z,721.47
2017-01-15T03:49:11.535Z,721.66
2017-01-15T03:50:11.504Z,721.6
2017-01-15T03:51:11.474Z,721.47
2017-01-15T03:52:11.447Z,721.67
2017-01-15T03:53:11.414Z,721.67
2017-01-15T03:54:11.385Z,721.39
2017-01-15T03:55:11.355Z,721.53
2017-01-15T03:56:11.324Z,721.46
2017-01-15T03:57:11.291Z,721.48
2017-01-15T03:58:11.259Z,721.7
2017-01-15T03:59:11.232Z,721.62
2017-01-15T04:00:11.202Z,721.4
2017-01-15T04:01:11.168Z,721.65
2017-01-15T04:02:11.138Z,721.51
2017-01-15T04:03:11.111Z,721.63
2017-01-15T04:04:11.080Z,721.46
2017-01-15T04:05:11.046Z,721.5
2017-01-15T04:06:11.015Z,721.69
2017-01-15T04:07:10.988Z,721.68
2017-01-15T04:08:10.955Z,721.74
2017-01-15T04:09:10.926Z,721.71
2017-01-15T04:10:10.896Z,721.8
2017-01-15T04:11:10.863Z,721.53
2017-01-15T04:12:10.834Z,721.4
2017-01-15T04:13:10.804Z,721.53
2017-01-15T04:14:10.770Z,721.73
2017-01-15T04:15:10.739Z,721.56
2017-01-15T04:16:10.708Z,721.58
2017-01-15T04:17:10.681Z,721.63
2017-01-15T04:18:10.650Z,721.58
2017-01-15T04:19:10.620Z,721.69
2017-01-15T04:20:10.588Z,721.67
2017-01-15T04:21:10.558Z,721.74
2017-01-15T04:22:10.524Z,721.65
2017-01-15T04:23:10.496Z,721.57
2017-01-15T04:24:10.462Z,721.66
2017-01-15T04:25:10.435Z,721.64
2017-01-15T04:26:10.403Z,721.63
2017-01-15T04:27:10.367Z,721.56
2017-01-15T04:28:10.341Z,721.66
2017-01-15T04:29:10.312Z,721.54
2017-01-15T04:30:10.279Z,721.65
2017-01-15T04:31:10.247Z,721.71
2017-01-15T04:32:10.213Z,721.78
2017-01-15T04:33:10.182Z,721.64
2017-01-15T04:34:10.150Z,721.67
2017-01-15T04:35:10.122Z,721.75
2017-01-15T04:36:10.091Z,721.69
2017-01-15T04:37:10.061Z,721.58
2017-01-15T04:38:10.025Z,721.62
2017-01-15T04:39:09.998Z,721.67
2017-01-15T04:40:09.963Z,721.58
2017-01-15T04:41:09.935Z,721.75
2017-01-15T04:42:09.900Z,721.71
2017-01-15T04:43:09.873Z,721.78
2017-01-15T04:44:09.839Z,721.69
2017-01-15T04:45:09.810Z,721.64
2017-01-15T04:46:09.779Z,721.58
2017-01-15T04:47:09.748Z,721.63
2017-01-15T04:48:10.177Z,721.63
2017-01-15T04:49:09.685Z,721.68
2017-01-15T04:50:09.651Z,721.79
2017-01-15T04:51:09.623Z,721.7
2017-01-15T04:52:09.589Z,721.6
2017-01-15T04:53:09.558Z,721.65
2017-01-15T04:54:09.530Z,721.69
2017-01-15T04:55:09.499Z,721.77
2017-01-15T04:56:09.464Z,721.75
2017-01-15T04:57:09.436Z,721.76
2017-01-15T04:58:09.402Z,721.73
2017-01-15T04:59:09.371Z,721.75
2017-01-15T05:00:09.342Z,721.9
2017-01-15T05:01:09.311Z,721.83
2017-01-15T05:02:09.277Z,721.86
2017-01-15T05:03:09.245Z,721.8
2017-01-15T05:04:09.217Z,721.68
2017-01-15T05:05:09.187Z,721.87
2017-01-15T05:06:09.155Z,721.83
2017-01-15T05:07:09.120Z,722.03
2017-01-15T05:08:09.089Z,721.87
2017-01-15T05:09:09.062Z,721.88
2017-01-15T05:10:09.027Z,721.79
2017-01-15T05:11:08.998Z,721.67
2017-01-15T05:12:08.965Z,721.85
2017-01-15T05:13:08.937Z,721.97
2017-01-15T05:14:08.902Z,722.07
2017-01-15T05:15:08.874Z,721.97
2017-01-15T05:16:08.841Z,721.86
2017-01-15T05:17:08.812Z,721.8
2017-01-15T05:18:08.777Z,722.03
2017-01-15T05:19:08.750Z,722.04
2017-01-15T05:20:08.719Z,721.99
2017-01-15T05:21:08.688Z,722.06
2017-01-15T05:22:08.656Z,721.84
2017-01-15T05:23:08.626Z,721.98
2017-01-15T05:24:08.591Z,722.01
2017-01-15T05:25:08.563Z,721.95
2017-01-15T05:26:08.532Z,721.59
2017-01-15T05:27:08.498Z,722.01
2017-01-15T05:28:08.471Z,722.09
2017-01-15T05:29:08.438Z,722.08
2017-01-15T05:30:08.406Z,721.86
2017-01-15T05:31:08.377Z,721.84
2017-01-15T05:32:08.345Z,722.01
2017-01-15T05:33:08.314Z,722.16
2017-01-15T05:34:08.283Z,722.16
2017-01-15T05:35:08.251Z,722.06
2017-01-15T05:36:08.219Z,722.09
2017-01-15T05:37:08.186Z,722.21
2017-01-15T05:38:08.157Z,721.99
2017-01-15T05:39:08.126Z,722.04
2017-01-15T05:40:08.092Z,722.09
2017-01-15T05:41:08.061Z,722.12
2017-01-15T05:42:08.033Z,722.23
2017-01-15T05:43:08.002Z,722.14
2017-01-15T05:44:07.970Z,722.34
2017-01-15T05:45:07.938Z,722.29
2017-01-15T05:46:07.905Z,722.05
2017-01-15T05:47:07.872Z,722.21
2017-01-15T05:48:07.842Z,722.04
2017-01-15T05:49:07.811Z,722.11
2017-01-15T05:50:07.783Z,722.16
2017-01-15T05:51:07.747Z,722.33
2017-01-15T05:52:07.717Z,722.21
2017-01-15T05:53:07.686Z,722.28
2017-01-15T05:54:07.655Z,722.27
2017-01-15T05:55:07.627Z,722.22
2017-01-15T05:56:07.595Z,722.26
2017-01-15T05:57:07.560Z,722.33
2017-01-15T05:58:07.529Z,722.38
2017-01-15T05:59:07.499Z,722.53
2017-01-15T06:00:07.467Z,722.34
2017-01-15T06:01:07.440Z,722.37
2017-01-15T06:02:07.408Z,722.3
2017-01-15T06:03:07.377Z,722.46
2017-01-15T06:04:07.346Z,722.39
2017-01-15T06:05:07.316Z,722.41
2017-01-15T06:06:07.281Z,722.28
2017-01-15T06:07:07.250Z,722.49
2017-01-15T06:08:07.224Z,722.46
2017-01-15T06:09:07.188Z,722.44
2017-01-15T06:10:07.160Z,722.36
2017-01-15T06:11:07.126Z,722.53
2017-01-15T06:12:07.099Z,722.53
2017-01-15T06:13:07.068Z,722.45
2017-01-15T06:14:07.034Z,722.39
2017-01-15T06:15:07.006Z,722.38
2017-01-15T06:16:06.973Z,722.47
2017-01-15T06:18:06.914Z,722.5
2017-01-15T06:19:06.880Z,722.36
2017-01-15T06:20:06.851Z,722.43
2017-01-15T06:21:06.818Z,722.59
2017-01-15T06:22:06.788Z,722.52
2017-01-15T06:23:06.757Z,722.53
2017-01-15T06:24:06.726Z,722.62
2017-01-15T06:25:06.699Z,722.55
2017-01-15T06:26:06.669Z,722.58
2017-01-15T06:27:06.638Z,722.7
2017-01-15T06:28:06.608Z,722.67
2017-01-15T06:29:06.578Z,722.72
2017-01-15T06:30:06.548Z,722.64
2017-01-15T06:31:06.513Z,722.66
2017-01-15T06:32:06.483Z,722.65
2017-01-15T06:33:06.456Z,722.66
2017-01-15T06:34:06.423Z,722.82
2017-01-15T06:35:06.394Z,722.69
2017-01-15T06:36:06.361Z,722.73
2017-01-15T06:37:06.334Z,722.73
2017-01-15T06:38:06.300Z,722.74
2017-01-15T06:39:06.273Z,722.63
2017-01-15T06:40:06.239Z,722.76
2017-01-15T06:41:06.614Z,722.76
2017-01-15T06:42:06.195Z,722.73
2017-01-15T06:43:06.147Z,722.78
2017-01-15T06:44:06.118Z,722.78
2017-01-15T06:45:06.091Z,722.83
2017-01-15T06:46:06.060Z,722.78
2017-01-15T06:47:06.030Z,722.71
2017-01-15T06:48:05.997Z,722.82
2017-01-15T06:49:05.967Z,722.8
2017-01-15T06:50:05.939Z,722.84
2017-01-15T06:51:05.906Z,722.85
2017-01-15T06:52:05.879Z,722.83
2017-01-15T06:53:05.845Z,722.74
2017-01-15T06:54:05.814Z,722.85
2017-01-15T06:55:05.786Z,722.84
2017-01-15T06:56:05.760Z,722.87
2017-01-15T06:57:05.725Z,722.83
2017-01-15T06:58:05.699Z,722.72
2017-01-15T06:59:05.666Z,722.78
2017-01-15T07:00:05.636Z,722.89
2017-01-15T07:01:05.607Z,722.71
2017-01-15T07:02:05.579Z,722.84
2017-01-15T07:03:05.545Z,722.78
2017-01-15T07:04:05.518Z,722.87
2017-01-15T07:05:05.485Z,722.77
2017-01-15T07:06:05.459Z,722.88
2017-01-15T07:07:05.429Z,722.9
2017-01-15T07:08:05.397Z,722.94
2017-01-15T07:09:05.368Z,723.02
2017-01-15T07:10:05.338Z,723.02
2017-01-15T07:11:05.305Z,722.95
2017-01-15T07:12:05.273Z,722.97
2017-01-15T07:13:05.246Z,722.91
2017-01-15T07:14:05.213Z,722.91
2017-01-15T07:15:05.185Z,723.09
2017-01-15T07:16:05.152Z,723.04
2017-01-15T07:17:05.122Z,723.08
2017-01-15T07:18:05.092Z,723.01
2017-01-15T07:19:05.064Z,722.85
2017-01-15T07:20:05.034Z,723.1
2017-01-15T07:21:05.001Z,723.04
2017-01-15T07:22:04.970Z,723
2017-01-15T07:23:04.943Z,723.12
2017-01-15T07:24:04.913Z,723.15
2017-01-15T07:25:04.879Z,723.16
2017-01-15T07:26:04.848Z,723.14
2017-01-15T07:27:04.821Z,723.19
2017-01-15T07:28:04.791Z,723.09
2017-01-15T07:29:04.761Z,723.12
2017-01-15T07:30:04.727Z,723.09
2017-01-15T07:31:04.697Z,723
2017-01-15T07:32:04.668Z,723.15
2017-01-15T07:33:04.636Z,723.13
2017-01-15T07:34:04.606Z,723.22
2017-01-15T07:35:04.575Z,723.09
2017-01-15T07:36:04.550Z,723.09
2017-01-15T07:37:04.519Z,723.18
2017-01-15T07:38:04.486Z,723.17
2017-01-15T07:39:04.456Z,723.21
2017-01-15T07:40:04.430Z,723.18
2017-01-15T07:41:04.396Z,723.19
2017-01-15T07:42:04.370Z,723.31
2017-01-15T07:43:04.337Z,723.23
2017-01-15T07:44:04.306Z,723.28
2017-01-15T07:45:04.277Z,723.26
2017-01-15T07:46:04.251Z,723.2
2017-01-15T07:47:04.221Z,723.26
2017-01-15T07:48:04.187Z,723.26
2017-01-15T07:49:04.158Z,723.22
2017-01-15T07:50:04.129Z,723.25
2017-01-15T07:51:04.102Z,723.31
2017-01-15T07:52:04.067Z,723.24
2017-01-15T07:53:04.041Z,723.31
2017-01-15T07:54:04.009Z,723.25
2017-01-15T07:55:03.982Z,723.28
2017-01-15T07:56:03.949Z,723.3
2017-01-15T07:57:03.920Z,723.32
2017-01-15T07:58:03.894Z,723.39
2017-01-15T07:59:03.863Z,723.38
2017-01-15T08:00:03.834Z,723.35
2017-01-15T08:01:03.801Z,723.37
2017-01-15T08:02:03.775Z,723.36
2017-01-15T08:03:03.742Z,723.2
2017-01-15T08:04:03.713Z,723.31
2017-01-15T08:05:03.683Z,723.34
2017-01-15T08:06:03.652Z,723.43
2017-01-15T08:07:03.623Z,723.33
2017-01-15T08:08:03.593Z,723.35
2017-01-15T08:09:03.566Z,723.48
2017-01-15T08:10:03.533Z,723.5
2017-01-15T08:11:03.501Z,723.34
2017-01-15T08:12:03.472Z,723.43
2017-01-15T08:13:03.441Z,723.57
2017-01-15T08:14:03.411Z,723.39
2017-01-15T08:15:03.384Z,723.4
2017-01-15T08:16:03.351Z,723.48
2017-01-15T08:17:03.320Z,723.42
2017-01-15T08:18:03.293Z,723.42
2017-01-15T08:19:03.264Z,723.5
2017-01-15T08:20:03.232Z,723.45
2017-01-15T08:21:03.199Z,723.33
2017-01-15T08:22:03.169Z,723.45
2017-01-15T08:23:03.142Z,723.4
2017-01-15T08:24:03.108Z,723.37
2017-01-15T08:25:03.081Z,723.37
2017-01-15T08:26:03.052Z,723.52
2017-01-15T08:27:03.022Z,723.26
2017-01-15T08:28:03.006Z,723.29
2017-01-15T08:29:02.958Z,723.35
2017-01-15T08:30:02.928Z,723.46
2017-01-15T08:31:02.898Z,723.46
2017-01-15T08:32:02.867Z,723.47
2017-01-15T08:33:02.837Z,723.31
2017-01-15T08:34:02.811Z,723.44
2017-01-15T08:35:02.780Z,723.44
2017-01-15T08:36:02.751Z,723.44
2017-01-15T08:37:02.721Z,723.35
2017-01-15T08:38:02.691Z,723.54
2017-01-15T08:39:02.657Z,723.38
2017-01-15T08:40:02.631Z,723.52
2017-01-15T08:41:02.601Z,723.42
2017-01-15T08:42:02.572Z,723.51
2017-01-15T08:43:02.538Z,723.52
2017-01-15T08:44:02.509Z,723.34
2017-01-15T08:45:02.479Z,723.47
2017-01-15T08:46:02.449Z,723.51
2017-01-15T08:47:02.423Z,723.54
2017-01-15T08:48:02.393Z,723.59
2017-01-15T08:49:02.364Z,723.64
2017-01-15T08:50:02.331Z,723.44
2017-01-15T08:51:02.304Z,723.6
2017-01-15T08:52:02.272Z,723.57
2017-01-15T08:53:02.242Z,723.6
2017-01-15T08:54:02.212Z,723.6
2017-01-15T08:55:02.186Z,723.73
2017-01-15T08:56:02.157Z,723.71
2017-01-15T08:57:02.127Z,723.82
2017-01-15T08:58:02.095Z,723.71
2017-01-15T08:59:02.069Z,723.8
2017-01-15T09:00:02.038Z,723.69
2017-01-15T09:01:02.011Z,723.78
2017-01-15T09:02:01.983Z,723.84
2017-01-15T09:03:01.951Z,723.76
2017-01-15T09:04:01.923Z,723.79
2017-01-15T09:05:01.897Z,723.75
2017-01-15T09:06:01.869Z,723.7
2017-01-15T09:07:01.837Z,723.72
2017-01-15T09:08:01.811Z,723.72
2017-01-15T09:09:01.782Z,723.81
2017-01-15T09:10:01.754Z,723.76
2017-01-15T09:11:01.726Z,723.77
2017-01-15T09:12:01.696Z,723.84
2017-01-15T09:13:01.664Z,723.76
2017-01-15T09:14:01.636Z,723.86
2017-01-15T09:15:01.607Z,723.84
2017-01-15T09:16:01.580Z,723.97
2017-01-15T09:17:01.552Z,723.93
2017-01-15T09:18:01.523Z,723.89
2017-01-15T09:19:01.491Z,723.92
2017-01-15T09:20:01.462Z,723.95
2017-01-15T09:21:01.437Z,724
2017-01-15T09:22:01.405Z,723.99
2017-01-15T09:23:01.375Z,724.07
2017-01-15T09:24:01.350Z,724.16
2017-01-15T09:25:01.324Z,724.11
2017-01-15T09:26:01.293Z,724.04
2017-01-15T09:27:01.260Z,723.95
2017-01-15T09:28:01.235Z,724.1
2017-01-15T09:29:01.203Z,723.89
2017-01-15T09:30:01.174Z,723.98
2017-01-15T09:31:01.145Z,723.92
2017-01-15T09:32:01.117Z,723.97
2017-01-15T09:33:01.088Z,723.98
2017-01-15T09:34:01.058Z,724.13
2017-01-15T09:35:01.033Z,724.02
2017-01-15T09:36:01.001Z,724.1
2017-01-15T09:37:00.973Z,724.14
2017-01-15T09:38:00.944Z,724.12
2017-01-15T09:39:00.919Z,724.22
2017-01-15T09:40:00.891Z,724.05
2017-01-15T09:41:00.861Z,724.09
2017-01-15T09:42:00.830Z,723.98
2017-01-15T09:43:00.801Z,723.98
2017-01-15T09:44:00.776Z,723.97
2017-01-15T09:45:00.746Z,724.01
2017-01-15T09:46:00.714Z,723.94
2017-01-15T09:47:00.686Z,724.06
2017-01-15T09:48:00.659Z,724.06
2017-01-15T09:49:00.627Z,723.95
2017-01-15T09:50:00.598Z,724.03
2017-01-15T09:51:00.569Z,724.09
2017-01-15T09:52:00.543Z,724.07
2017-01-15T09:53:00.514Z,724.1
2017-01-15T09:54:00.482Z,724.07
2017-01-15T09:55:00.453Z,724.1
2017-01-15T09:56:00.427Z,724.11
2017-01-15T09:57:00.395Z,724.01
2017-01-15T09:58:00.366Z,723.99
2017-01-15T09:59:00.337Z,723.99
2017-01-15T10:00:00.308Z,723.91
2017-01-15T10:01:00.282Z,724.02
2017-01-15T10:02:00.250Z,724
2017-01-15T10:03:00.220Z,723.89
2017-01-15T10:04:00.191Z,724.06
2017-01-15T10:05:00.162Z,724.04
2017-01-15T10:06:00.132Z,723.99
2017-01-15T10:07:00.104Z,724.04
2017-01-15T10:08:00.075Z,724.01
2017-01-15T10:09:00.049Z,724.1
2017-01-15T10:10:00.016Z,724.03
2017-01-15T10:10:59.990Z,723.98
2017-01-15T10:11:59.961Z,724.07
2017-01-15T10:12:59.932Z,724.16
2017-01-15T10:13:59.902Z,724.12
2017-01-15T10:14:59.873Z,724.06
2017-01-15T10:15:59.843Z,724.16
2017-01-15T10:16:59.811Z,723.98
2017-01-15T10:17:59.781Z,724.17
2017-01-15T10:18:59.755Z,723.9
2017-01-15T10:19:59.725Z,724.05
2017-01-15T10:20:59.695Z,724.07
2017-01-15T10:21:59.665Z,724.08
2017-01-15T10:22:59.633Z,724
2017-01-15T10:23:59.606Z,723.95
2017-01-15T10:24:59.573Z,723.92
2017-01-15T10:25:59.543Z,723.74
2017-01-15T10:26:59.514Z,723.96
2017-01-15T10:27:59.485Z,724
2017-01-15T10:28:59.459Z,723.99
2017-01-15T10:29:59.426Z,724.02
2017-01-15T10:30:59.397Z,724.03
2017-01-15T10:31:59.370Z,724.06
2017-01-15T10:32:59.342Z,723.96
2017-01-15T10:33:59.313Z,723.9
2017-01-15T10:34:59.285Z,723.93
2017-01-15T10:35:59.252Z,723.98
2017-01-15T10:36:59.227Z,723.83
2017-01-15T10:37:59.195Z,723.85
2017-01-15T10:38:59.170Z,723.83
2017-01-15T10:39:59.140Z,723.83
2017-01-15T10:40:59.109Z,724.08
2017-01-15T10:41:59.084Z,723.85
2017-01-15T10:42:59.054Z,723.81
2017-01-15T10:43:59.026Z,723.87
2017-01-15T10:44:58.994Z,723.88
2017-01-15T10:45:58.966Z,723.84
2017-01-15T10:46:58.936Z,723.81
2017-01-15T10:47:58.908Z,723.77
2017-01-15T10:48:58.879Z,723.69
2017-01-15T10:49:58.850Z,723.78
2017-01-15T10:50:58.821Z,723.58
2017-01-15T10:51:58.795Z,723.58
2017-01-15T10:52:58.767Z,723.74
2017-01-15T10:53:58.737Z,723.8
2017-01-15T10:54:58.705Z,723.76
2017-01-15T10:55:58.676Z,723.8
2017-01-15T10:56:58.647Z,723.73
2017-01-15T10:57:58.620Z,723.64
2017-01-15T10:58:58.591Z,723.65
2017-01-15T10:59:58.559Z,723.76
2017-01-15T11:00:58.533Z,723.65
2017-01-15T11:01:58.502Z,723.78
2017-01-15T11:02:58.474Z,723.7
2017-01-15T11:03:58.442Z,723.75
2017-01-15T11:04:58.411Z,723.65
2017-01-15T11:05:58.386Z,723.76
2017-01-15T11:06:58.359Z,723.75
2017-01-15T11:07:58.327Z,723.74
2017-01-15T11:08:58.297Z,723.77
2017-01-15T11:09:58.268Z,723.79
2017-01-15T11:10:58.239Z,723.86
2017-01-15T11:11:58.207Z,723.82
2017-01-15T11:12:58.181Z,723.78
2017-01-15T11:13:58.149Z,723.83
2017-01-15T11:14:58.123Z,723.9
2017-01-15T11:15:58.093Z,723.96
2017-01-15T11:16:58.064Z,723.89
2017-01-15T11:17:58.035Z,723.92
2017-01-15T11:18:58.006Z,723.98
2017-01-15T11:19:57.977Z,723.96
2017-01-15T11:20:57.947Z,723.89
2017-01-15T11:21:57.920Z,724.01
2017-01-15T11:22:57.889Z,724.04
2017-01-15T11:23:57.858Z,724.09
2017-01-15T11:24:57.829Z,724.01
2017-01-15T11:25:57.800Z,723.88
2017-01-15T11:26:57.771Z,723.99
2017-01-15T11:27:57.743Z,724.07
2017-01-15T11:28:57.714Z,723.8
2017-01-15T11:29:57.689Z,723.98
2017-01-15T11:30:57.656Z,723.89
2017-01-15T11:31:57.627Z,723.83
2017-01-15T11:32:57.598Z,723.78
2017-01-15T11:33:57.568Z,723.94
2017-01-15T11:34:57.540Z,723.86
2017-01-15T11:35:57.510Z,723.95
2017-01-15T11:36:57.484Z,723.88
2017-01-15T11:37:57.451Z,723.96
2017-01-15T11:38:57.424Z,723.8
2017-01-15T11:39:57.392Z,723.94
2017-01-15T11:40:57.363Z,723.96
2017-01-15T11:41:57.333Z,723.85
2017-01-15T11:42:57.306Z,723.98
2017-01-15T11:43:57.277Z,723.96
2017-01-15T11:44:57.247Z,723.97
2017-01-15T11:45:57.217Z,723.9
2017-01-15T11:46:57.188Z,723.9
2017-01-15T11:47:57.158Z,723.98
2017-01-15T11:48:57.124Z,723.92
2017-01-15T11:49:57.098Z,724.03
2017-01-15T11:50:57.065Z,723.9
2017-01-15T11:51:57.036Z,723.95
2017-01-15T11:52:57.005Z,723.99
2017-01-15T11:53:56.975Z,723.89
2017-01-15T11:54:56.945Z,723.87
2017-01-15T11:55:56.918Z,724.01
2017-01-15T11:56:56.888Z,723.88
2017-01-15T11:57:56.859Z,723.97
2017-01-15T11:58:56.826Z,723.91
2017-01-15T11:59:56.795Z,724
2017-01-15T12:00:56.768Z,723.91
2017-01-15T12:01:56.739Z,723.87
2017-01-15T12:02:56.709Z,723.85
2017-01-15T12:03:56.675Z,723.87
2017-01-15T12:04:56.644Z,723.75
2017-01-15T12:05:56.616Z,723.93
2017-01-15T12:06:56.585Z,723.68
2017-01-15T12:07:56.556Z,723.97
2017-01-15T12:08:56.529Z,723.86
2017-01-15T12:09:56.496Z,723.94
2017-01-15T12:10:56.465Z,723.57
2017-01-15T12:11:56.439Z,723.75
2017-01-15T12:12:56.410Z,723.67
2017-01-15T12:13:56.377Z,723.89
2017-01-15T12:14:56.346Z,723.74
2017-01-15T12:15:56.316Z,723.77
2017-01-15T12:16:56.287Z,723.76
2017-01-15T12:17:56.265Z,723.97
2017-01-15T12:18:56.226Z,723.72
2017-01-15T12:19:56.196Z,723.89
2017-01-15T12:20:56.166Z,723.89
2017-01-15T12:21:56.139Z,723.8
2017-01-15T12:22:56.106Z,723.83
2017-01-15T12:23:56.076Z,723.61
2017-01-15T12:24:56.047Z,723.7
2017-01-15T12:25:56.016Z,723.81
2017-01-15T12:26:55.986Z,723.7
2017-01-15T12:27:55.959Z,723.86
2017-01-15T12:28:55.929Z,723.71
2017-01-15T12:29:55.896Z,723.55
2017-01-15T12:30:55.871Z,723.78
2017-01-15T12:31:55.840Z,723.71